sensor_id;sensor_type;location;lat;lon;timestamp;pressure;altitude;pressure_sealevel;temperature;humidity
60874;BME280;46715;40.642;-7.920;2023-04-29T00:01:06;96390.47;;;17.08;92.88
60874;BME280;46715;40.642;-7.920;2023-04-29T00:03:06;96392.78;;;17.10;92.84
60874;BME280;46715;40.642;-7.920;2023-04-29T00:05:09;96389.06;;;17.02;93.37
60874;BME280;46715;40.642;-7.920;2023-04-29T00:07:10;96385.94;;;17.00;93.82
60874;BME280;46715;40.642;-7.920;2023-04-29T00:09:14;96387.81;;;16.99;94.03
60874;BME280;46715;40.642;-7.920;2023-04-29T00:11:15;96387.81;;;16.99;93.69
60874;BME280;46715;40.642;-7.920;2023-04-29T00:13:16;96387.03;;;16.99;94.08
60874;BME280;46715;40.642;-7.920;2023-04-29T00:15:17;96386.25;;;16.98;95.99
60874;BME280;46715;40.642;-7.920;2023-04-29T00:17:18;96378.53;;;17.02;96.31
60874;BME280;46715;40.642;-7.920;2023-04-29T00:19:19;96383.78;;;17.02;96.68
60874;BME280;46715;40.642;-7.920;2023-04-29T00:21:20;96378.81;;;17.00;97.38
60874;BME280;46715;40.642;-7.920;2023-04-29T00:23:21;96390.91;;;17.01;98.37
60874;BME280;46715;40.642;-7.920;2023-04-29T00:25:22;96392.78;;;17.01;99.07
60874;BME280;46715;40.642;-7.920;2023-04-29T00:27:22;96388.44;;;16.96;99.89
60874;BME280;46715;40.642;-7.920;2023-04-29T00:29:25;96379.72;;;16.96;100.00
60874;BME280;46715;40.642;-7.920;2023-04-29T00:31:28;96372.78;;;17.00;99.75
60874;BME280;46715;40.642;-7.920;2023-04-29T00:33:31;96380.69;;;17.00;99.92
60874;BME280;46715;40.642;-7.920;2023-04-29T00:35:32;96375.72;;;16.98;100.00
60874;BME280;46715;40.642;-7.920;2023-04-29T00:37:34;96380.97;;;16.98;99.93
60874;BME280;46715;40.642;-7.920;2023-04-29T00:39:35;96376.34;;;16.95;99.95
60874;BME280;46715;40.642;-7.920;2023-04-29T00:41:40;96377.53;;;16.89;99.02
60874;BME280;46715;40.642;-7.920;2023-04-29T00:43:41;96368.66;;;16.85;99.04
60874;BME280;46715;40.642;-7.920;2023-04-29T00:45:43;96365.56;;;16.83;99.03
60874;BME280;46715;40.642;-7.920;2023-04-29T00:47:46;96364.63;;;16.79;99.02
60874;BME280;46715;40.642;-7.920;2023-04-29T00:49:48;96376.53;;;16.76;99.13
60874;BME280;46715;40.642;-7.920;2023-04-29T00:51:49;96374.50;;;16.73;100.00
60874;BME280;46715;40.642;-7.920;2023-04-29T00:53:50;96375.41;;;16.68;100.00
60874;BME280;46715;40.642;-7.920;2023-04-29T00:55:54;96367.81;;;16.67;100.00
60874;BME280;46715;40.642;-7.920;2023-04-29T00:57:56;96366.88;;;16.63;100.00
60874;BME280;46715;40.642;-7.920;2023-04-29T00:59:57;96368.53;;;16.59;100.00
60874;BME280;46715;40.642;-7.920;2023-04-29T01:02:02;96377.28;;;16.68;100.00
60874;BME280;46715;40.642;-7.920;2023-04-29T01:04:04;96376.66;;;16.71;100.00
60874;BME280;46715;40.642;-7.920;2023-04-29T01:10:56;96369.03;;;16.92;100.00
60874;BME280;46715;40.642;-7.920;2023-04-29T01:13:08;96363.63;;;16.97;100.00
60874;BME280;46715;40.642;-7.920;2023-04-29T01:15:25;96370.63;;;17.11;100.00
60874;BME280;46715;40.642;-7.920;2023-04-29T01:17:41;96370.81;;;17.14;100.00
60874;BME280;46715;40.642;-7.920;2023-04-29T01:19:49;96368.66;;;17.25;100.00
60874;BME280;46715;40.642;-7.920;2023-04-29T01:21:54;96367.56;;;17.26;100.00
60874;BME280;46715;40.642;-7.920;2023-04-29T01:23:56;96364.81;;;17.31;100.00
60874;BME280;46715;40.642;-7.920;2023-04-29T01:26:00;96358.44;;;17.32;100.00
60874;BME280;46715;40.642;-7.920;2023-04-29T01:38:35;96345.69;;;16.77;100.00
60874;BME280;46715;40.642;-7.920;2023-04-29T01:40:48;96350.47;;;16.66;100.00
60874;BME280;46715;40.642;-7.920;2023-04-29T01:43:01;96351.88;;;16.63;100.00
60874;BME280;46715;40.642;-7.920;2023-04-29T01:45:09;96352.00;;;16.58;100.00
60874;BME280;46715;40.642;-7.920;2023-04-29T01:47:12;96355.69;;;16.57;100.00
60874;BME280;46715;40.642;-7.920;2023-04-29T01:49:24;96351.22;;;16.58;100.00
60874;BME280;46715;40.642;-7.920;2023-04-29T01:51:26;96349.97;;;16.55;100.00
60874;BME280;46715;40.642;-7.920;2023-04-29T01:53:32;96348.72;;;16.52;100.00
60874;BME280;46715;40.642;-7.920;2023-04-29T01:55:34;96347.94;;;16.52;100.00
60874;BME280;46715;40.642;-7.920;2023-04-29T01:57:49;96346.38;;;16.51;100.00
60874;BME280;46715;40.642;-7.920;2023-04-29T01:59:57;96343.25;;;16.49;100.00
60874;BME280;46715;40.642;-7.920;2023-04-29T02:02:04;96343.88;;;16.46;100.00
60874;BME280;46715;40.642;-7.920;2023-04-29T02:04:06;96347.44;;;16.41;100.00
60874;BME280;46715;40.642;-7.920;2023-04-29T02:06:07;96348.63;;;16.35;100.00
60874;BME280;46715;40.642;-7.920;2023-04-29T02:08:10;96356.88;;;16.42;100.00
60874;BME280;46715;40.642;-7.920;2023-04-29T02:10:15;96350.81;;;16.42;100.00
60874;BME280;46715;40.642;-7.920;2023-04-29T02:12:18;96348.19;;;16.42;100.00
60874;BME280;46715;40.642;-7.920;2023-04-29T02:14:19;96359.75;;;16.32;100.00
60874;BME280;46715;40.642;-7.920;2023-04-29T02:16:20;96358.78;;;16.28;100.00
60874;BME280;46715;40.642;-7.920;2023-04-29T02:18:27;96355.22;;;16.24;100.00
60874;BME280;46715;40.642;-7.920;2023-04-29T02:20:28;96356.59;;;16.21;100.00
60874;BME280;46715;40.642;-7.920;2023-04-29T02:22:29;96364.97;;;16.23;100.00
60874;BME280;46715;40.642;-7.920;2023-04-29T02:24:31;96365.84;;;16.41;100.00
60874;BME280;46715;40.642;-7.920;2023-04-29T02:26:32;96354.84;;;16.39;100.00
60874;BME280;46715;40.642;-7.920;2023-04-29T02:28:33;96358.38;;;16.34;100.00
60874;BME280;46715;40.642;-7.920;2023-04-29T02:30:35;96352.03;;;16.35;100.00
60874;BME280;46715;40.642;-7.920;2023-04-29T02:32:35;96345.69;;;16.36;100.00
60874;BME280;46715;40.642;-7.920;2023-04-29T02:34:40;96352.03;;;16.35;100.00
60874;BME280;46715;40.642;-7.920;2023-04-29T02:36:41;96361.53;;;16.45;100.00
60874;BME280;46715;40.642;-7.920;2023-04-29T02:38:43;96366.94;;;16.49;100.00
60874;BME280;46715;40.642;-7.920;2023-04-29T02:40:44;96365.88;;;16.50;100.00
60874;BME280;46715;40.642;-7.920;2023-04-29T02:42:46;96362.19;;;16.51;100.00
60874;BME280;46715;40.642;-7.920;2023-04-29T02:44:46;96365.72;;;16.46;100.00
60874;BME280;46715;40.642;-7.920;2023-04-29T02:46:47;96361.84;;;16.44;100.00
60874;BME280;46715;40.642;-7.920;2023-04-29T02:48:48;96361.69;;;16.49;100.00
60874;BME280;46715;40.642;-7.920;2023-04-29T02:50:50;96364.50;;;16.52;100.00
60874;BME280;46715;40.642;-7.920;2023-04-29T02:52:51;96371.06;;;16.64;100.00
60874;BME280;46715;40.642;-7.920;2023-04-29T02:54:53;96374.81;;;16.72;100.00
60874;BME280;46715;40.642;-7.920;2023-04-29T02:56:55;96384.75;;;16.75;100.00
60874;BME280;46715;40.642;-7.920;2023-04-29T02:58:56;96385.81;;;16.74;100.00
60874;BME280;46715;40.642;-7.920;2023-04-29T03:00:57;96389.88;;;16.80;100.00
60874;BME280;46715;40.642;-7.920;2023-04-29T03:02:59;96380.28;;;16.84;100.00
60874;BME280;46715;40.642;-7.920;2023-04-29T03:05:01;96378.13;;;16.86;100.00
60874;BME280;46715;40.642;-7.920;2023-04-29T03:07:02;96385.34;;;16.72;100.00
60874;BME280;46715;40.642;-7.920;2023-04-29T03:09:03;96390.56;;;16.63;100.00
60874;BME280;46715;40.642;-7.920;2023-04-29T03:11:05;96388.06;;;16.58;100.00
60874;BME280;46715;40.642;-7.920;2023-04-29T03:13:06;96388.50;;;16.51;100.00
60874;BME280;46715;40.642;-7.920;2023-04-29T03:15:07;96391.75;;;16.48;100.00
60874;BME280;46715;40.642;-7.920;2023-04-29T03:17:10;96397.13;;;16.43;100.00
60874;BME280;46715;40.642;-7.920;2023-04-29T03:19:11;96381.63;;;16.41;100.00
60874;BME280;46715;40.642;-7.920;2023-04-29T03:21:13;96388.16;;;16.44;100.00
60874;BME280;46715;40.642;-7.920;2023-04-29T03:23:15;96393.41;;;16.44;100.00
60874;BME280;46715;40.642;-7.920;2023-04-29T03:25:15;96387.53;;;16.47;100.00
60874;BME280;46715;40.642;-7.920;2023-04-29T03:27:17;96393.13;;;16.45;100.00
60874;BME280;46715;40.642;-7.920;2023-04-29T03:29:17;96392.47;;;16.40;100.00
60874;BME280;46715;40.642;-7.920;2023-04-29T03:31:19;96403.56;;;16.36;100.00
60874;BME280;46715;40.642;-7.920;2023-04-29T03:33:22;96404.66;;;16.35;100.00
60874;BME280;46715;40.642;-7.920;2023-04-29T03:35:24;96414.28;;;16.40;100.00
60874;BME280;46715;40.642;-7.920;2023-04-29T03:37:50;96406.28;;;16.45;100.00
60874;BME280;46715;40.642;-7.920;2023-04-29T03:39:57;96409.50;;;16.42;100.00
60874;BME280;46715;40.642;-7.920;2023-04-29T03:41:59;96409.97;;;16.44;100.00
60874;BME280;46715;40.642;-7.920;2023-04-29T03:44:00;96407.53;;;16.48;100.00
60874;BME280;46715;40.642;-7.920;2023-04-29T03:46:03;96399.78;;;16.51;100.00
60874;BME280;46715;40.642;-7.920;2023-04-29T03:48:05;96398.53;;;16.49;100.00
60874;BME280;46715;40.642;-7.920;2023-04-29T03:50:06;96400.38;;;16.40;100.00
60874;BME280;46715;40.642;-7.920;2023-04-29T03:52:09;96405.31;;;16.41;100.00
60874;BME280;46715;40.642;-7.920;2023-04-29T03:54:12;96404.25;;;16.42;100.00
60874;BME280;46715;40.642;-7.920;2023-04-29T03:56:16;96408.31;;;16.48;100.00
60874;BME280;46715;40.642;-7.920;2023-04-29T03:58:19;96409.25;;;16.52;100.00
60874;BME280;46715;40.642;-7.920;2023-04-29T04:00:20;96404.94;;;16.57;100.00
60874;BME280;46715;40.642;-7.920;2023-04-29T04:02:26;96404.19;;;16.56;100.00
60874;BME280;46715;40.642;-7.920;2023-04-29T04:04:30;96400.75;;;16.56;100.00
60874;BME280;46715;40.642;-7.920;2023-04-29T04:06:31;96399.69;;;16.57;100.00
60874;BME280;46715;40.642;-7.920;2023-04-29T04:08:32;96402.03;;;16.67;100.00
60874;BME280;46715;40.642;-7.920;2023-04-29T04:10:42;96401.16;;;16.49;100.00
60874;BME280;46715;40.642;-7.920;2023-04-29T04:12:55;96398.19;;;16.42;100.00
60874;BME280;46715;40.642;-7.920;2023-04-29T04:14:57;96400.19;;;16.36;100.00
60874;BME280;46715;40.642;-7.920;2023-04-29T04:17:00;96406.03;;;16.33;100.00
60874;BME280;46715;40.642;-7.920;2023-04-29T04:19:01;96408.47;;;16.29;100.00
60874;BME280;46715;40.642;-7.920;2023-04-29T04:21:05;96410.25;;;16.34;100.00
60874;BME280;46715;40.642;-7.920;2023-04-29T04:23:07;96402.50;;;16.38;100.00
60874;BME280;46715;40.642;-7.920;2023-04-29T04:25:09;96408.56;;;16.38;100.00
60874;BME280;46715;40.642;-7.920;2023-04-29T04:27:10;96414.78;;;16.42;100.00
60874;BME280;46715;40.642;-7.920;2023-04-29T04:29:16;96418.59;;;16.36;100.00
60874;BME280;46715;40.642;-7.920;2023-04-29T04:31:30;96417.34;;;16.33;100.00
60874;BME280;46715;40.642;-7.920;2023-04-29T04:33:32;96420.47;;;16.35;100.00
60874;BME280;46715;40.642;-7.920;2023-04-29T04:35:34;96421.66;;;16.29;100.00
60874;BME280;46715;40.642;-7.920;2023-04-29T04:37:35;96423.50;;;16.29;100.00
60874;BME280;46715;40.642;-7.920;2023-04-29T04:39:37;96429.94;;;16.23;100.00
60874;BME280;46715;40.642;-7.920;2023-04-29T04:41:40;96428.22;;;16.18;100.00
60874;BME280;46715;40.642;-7.920;2023-04-29T04:43:42;96423.56;;;16.15;100.00
60874;BME280;46715;40.642;-7.920;2023-04-29T04:45:50;96422.66;;;16.19;100.00
60874;BME280;46715;40.642;-7.920;2023-04-29T04:47:51;96419.91;;;16.25;100.00
60874;BME280;46715;40.642;-7.920;2023-04-29T04:49:55;96429.00;;;16.18;100.00
60874;BME280;46715;40.642;-7.920;2023-04-29T04:51:56;96443.34;;;16.12;100.00
60874;BME280;46715;40.642;-7.920;2023-04-29T04:53:58;96429.13;;;16.13;100.00
60874;BME280;46715;40.642;-7.920;2023-04-29T04:56:02;96430.56;;;16.19;100.00
60874;BME280;46715;40.642;-7.920;2023-04-29T04:58:05;96436.78;;;16.24;100.00
60874;BME280;46715;40.642;-7.920;2023-04-29T05:00:07;96430.13;;;16.26;100.00
60874;BME280;46715;40.642;-7.920;2023-04-29T05:02:09;96432.00;;;16.26;100.00
60874;BME280;46715;40.642;-7.920;2023-04-29T05:04:10;96426.09;;;16.20;100.00
60874;BME280;46715;40.642;-7.920;2023-04-29T05:06:11;96435.94;;;16.14;100.00
60874;BME280;46715;40.642;-7.920;2023-04-29T05:08:14;96440.53;;;16.09;100.00
60874;BME280;46715;40.642;-7.920;2023-04-29T05:10:19;96439.88;;;16.03;100.00
60874;BME280;46715;40.642;-7.920;2023-04-29T05:12:24;96443.16;;;16.09;100.00
60874;BME280;46715;40.642;-7.920;2023-04-29T05:14:31;96433.59;;;16.13;100.00
60874;BME280;46715;40.642;-7.920;2023-04-29T05:16:33;96440.97;;;16.02;100.00
60874;BME280;46715;40.642;-7.920;2023-04-29T05:18:34;96442.44;;;15.94;100.00
60874;BME280;46715;40.642;-7.920;2023-04-29T05:20:35;96443.50;;;15.93;100.00
60874;BME280;46715;40.642;-7.920;2023-04-29T05:22:36;96439.41;;;16.01;100.00
60874;BME280;46715;40.642;-7.920;2023-04-29T05:24:36;96446.22;;;16.02;100.00
60874;BME280;46715;40.642;-7.920;2023-04-29T05:26:39;96443.44;;;16.07;100.00
60874;BME280;46715;40.642;-7.920;2023-04-29T05:28:41;96451.03;;;16.09;100.00
60874;BME280;46715;40.642;-7.920;2023-04-29T05:30:45;96459.69;;;16.23;100.00
60874;BME280;46715;40.642;-7.920;2023-04-29T05:32:46;96456.69;;;16.16;100.00
60874;BME280;46715;40.642;-7.920;2023-04-29T05:34:53;96453.41;;;16.10;100.00
60874;BME280;46715;40.642;-7.920;2023-04-29T05:36:55;96465.34;;;16.16;100.00
60874;BME280;46715;40.642;-7.920;2023-04-29T05:38:58;96463.50;;;16.17;100.00
60874;BME280;46715;40.642;-7.920;2023-04-29T05:40:59;96458.06;;;16.13;100.00
60874;BME280;46715;40.642;-7.920;2023-04-29T05:43:37;96464.09;;;16.14;100.00
60874;BME280;46715;40.642;-7.920;2023-04-29T05:45:38;96462.13;;;16.19;100.00
60874;BME280;46715;40.642;-7.920;2023-04-29T05:47:41;96466.97;;;16.26;100.00
60874;BME280;46715;40.642;-7.920;2023-04-29T05:49:41;96476.53;;;16.22;100.00
60874;BME280;46715;40.642;-7.920;2023-04-29T05:51:43;96478.88;;;16.24;100.00
60874;BME280;46715;40.642;-7.920;2023-04-29T05:53:43;96477.91;;;16.19;100.00
60874;BME280;46715;40.642;-7.920;2023-04-29T05:55:45;96484.06;;;16.15;100.00
60874;BME280;46715;40.642;-7.920;2023-04-29T05:57:46;96486.63;;;16.06;100.00
60874;BME280;46715;40.642;-7.920;2023-04-29T05:59:47;96487.22;;;16.03;100.00
60874;BME280;46715;40.642;-7.920;2023-04-29T06:01:48;96490.63;;;16.04;100.00
60874;BME280;46715;40.642;-7.920;2023-04-29T06:03:49;96488.16;;;16.07;100.00
60874;BME280;46715;40.642;-7.920;2023-04-29T06:06:16;96494.50;;;16.20;100.00
60874;BME280;46715;40.642;-7.920;2023-04-29T06:08:34;96501.06;;;16.31;100.00
60874;BME280;46715;40.642;-7.920;2023-04-29T06:10:38;96501.19;;;16.49;100.00
60874;BME280;46715;40.642;-7.920;2023-04-29T06:12:39;96500.97;;;16.59;100.00
60874;BME280;46715;40.642;-7.920;2023-04-29T06:14:40;96504.41;;;16.68;100.00
60874;BME280;46715;40.642;-7.920;2023-04-29T06:16:42;96505.09;;;16.74;100.00
60874;BME280;46715;40.642;-7.920;2023-04-29T06:18:43;96496.09;;;16.75;100.00
60874;BME280;46715;40.642;-7.920;2023-04-29T06:20:43;96502.31;;;16.79;100.00
60874;BME280;46715;40.642;-7.920;2023-04-29T06:22:44;96503.28;;;16.83;100.00
60874;BME280;46715;40.642;-7.920;2023-04-29T06:24:46;96502.50;;;17.06;100.00
60874;BME280;46715;40.642;-7.920;2023-04-29T06:26:58;96505.03;;;17.19;100.00
60874;BME280;46715;40.642;-7.920;2023-04-29T06:29:00;96506.97;;;17.36;99.13
60874;BME280;46715;40.642;-7.920;2023-04-29T06:31:01;96502.50;;;17.46;97.30
60874;BME280;46715;40.642;-7.920;2023-04-29T06:33:01;96504.38;;;17.45;97.08
60874;BME280;46715;40.642;-7.920;2023-04-29T06:35:02;96507.97;;;17.49;95.67
60874;BME280;46715;40.642;-7.920;2023-04-29T06:37:23;96511.75;;;17.75;95.18
60874;BME280;46715;40.642;-7.920;2023-04-29T06:39:38;96513.69;;;18.00;93.57
60874;BME280;46715;40.642;-7.920;2023-04-29T06:41:53;96524.28;;;18.35;91.40
60874;BME280;46715;40.642;-7.920;2023-04-29T06:44:18;96526.13;;;18.52;89.85
60874;BME280;46715;40.642;-7.920;2023-04-29T06:46:25;96533.72;;;18.63;87.82
60874;BME280;46715;40.642;-7.920;2023-04-29T06:48:36;96536.69;;;18.61;86.37
60874;BME280;46715;40.642;-7.920;2023-04-29T06:50:37;96533.13;;;18.74;85.49
60874;BME280;46715;40.642;-7.920;2023-04-29T06:52:41;96530.91;;;18.77;85.18
60874;BME280;46715;40.642;-7.920;2023-04-29T06:54:43;96525.19;;;18.74;85.83
60874;BME280;46715;40.642;-7.920;2023-04-29T06:56:45;96531.88;;;18.63;86.50
60874;BME280;46715;40.642;-7.920;2023-04-29T06:58:46;96536.09;;;18.38;87.90
60874;BME280;46715;40.642;-7.920;2023-04-29T07:00:49;96529.84;;;18.08;89.36
60874;BME280;46715;40.642;-7.920;2023-04-29T07:02:51;96529.84;;;18.08;89.73
60874;BME280;46715;40.642;-7.920;2023-04-29T07:04:52;96530.31;;;18.10;90.22
60874;BME280;46715;40.642;-7.920;2023-04-29T07:06:54;96525.34;;;18.17;89.81
60874;BME280;46715;40.642;-7.920;2023-04-29T07:08:56;96523.19;;;18.28;88.72
60874;BME280;46715;40.642;-7.920;2023-04-29T07:10:57;96527.84;;;18.39;87.85
60874;BME280;46715;40.642;-7.920;2023-04-29T07:12:58;96536.53;;;18.40;87.23
60874;BME280;46715;40.642;-7.920;2023-04-29T07:15:01;96539.34;;;18.17;88.44
60874;BME280;46715;40.642;-7.920;2023-04-29T07:17:05;96545.53;;;18.13;88.87
60874;BME280;46715;40.642;-7.920;2023-04-29T07:19:06;96548.50;;;18.29;87.46
60874;BME280;46715;40.642;-7.920;2023-04-29T07:21:07;96551.44;;;18.36;87.33
60874;BME280;46715;40.642;-7.920;2023-04-29T07:23:08;96548.50;;;18.37;86.85
60874;BME280;46715;40.642;-7.920;2023-04-29T07:25:12;96551.13;;;18.20;87.54
60874;BME280;46715;40.642;-7.920;2023-04-29T07:27:13;96540.28;;;18.30;87.80
60874;BME280;46715;40.642;-7.920;2023-04-29T07:29:14;96541.50;;;18.42;86.69
60874;BME280;46715;40.642;-7.920;2023-04-29T07:31:15;96540.72;;;18.58;86.52
60874;BME280;46715;40.642;-7.920;2023-04-29T07:33:16;96539.94;;;18.67;86.95
60874;BME280;46715;40.642;-7.920;2023-04-29T07:35:17;96541.03;;;18.83;86.85
60874;BME280;46715;40.642;-7.920;2023-04-29T07:37:20;96545.72;;;19.42;84.37
60874;BME280;46715;40.642;-7.920;2023-04-29T07:39:21;96550.09;;;19.77;82.41
60874;BME280;46715;40.642;-7.920;2023-04-29T07:41:28;96551.63;;;19.87;79.53
60874;BME280;46715;40.642;-7.920;2023-04-29T07:43:31;96551.50;;;19.74;79.45
60874;BME280;46715;40.642;-7.920;2023-04-29T07:45:32;96554.88;;;19.92;78.77
60874;BME280;46715;40.642;-7.920;2023-04-29T07:47:34;96547.84;;;20.39;76.76
60874;BME280;46715;40.642;-7.920;2023-04-29T07:49:35;96548.88;;;20.89;74.59
60874;BME280;46715;40.642;-7.920;2023-04-29T07:51:36;96537.13;;;21.23;71.41
60874;BME280;46715;40.642;-7.920;2023-04-29T07:53:37;96535.44;;;21.52;70.10
60874;BME280;46715;40.642;-7.920;2023-04-29T07:55:38;96534.22;;;21.74;68.75
60874;BME280;46715;40.642;-7.920;2023-04-29T07:57:39;96529.44;;;21.68;68.63
60874;BME280;46715;40.642;-7.920;2023-04-29T07:59:40;96535.97;;;21.70;67.70
60874;BME280;46715;40.642;-7.920;2023-04-29T08:01:42;96539.31;;;21.92;67.68
60874;BME280;46715;40.642;-7.920;2023-04-29T08:03:43;96536.50;;;22.01;65.75
60874;BME280;46715;40.642;-7.920;2023-04-29T08:05:47;96540.25;;;22.00;65.29
60874;BME280;46715;40.642;-7.920;2023-04-29T08:07:51;96538.28;;;21.84;65.06
60874;BME280;46715;40.642;-7.920;2023-04-29T08:09:53;96534.94;;;21.50;65.67
60874;BME280;46715;40.642;-7.920;2023-04-29T08:11:54;96533.75;;;21.48;66.91
60874;BME280;46715;40.642;-7.920;2023-04-29T08:13:56;96541.91;;;21.42;67.51
60874;BME280;46715;40.642;-7.920;2023-04-29T08:15:59;96535.56;;;21.56;67.19
60874;BME280;46715;40.642;-7.920;2023-04-29T08:18:04;96541.28;;;21.58;67.28
60874;BME280;46715;40.642;-7.920;2023-04-29T08:20:05;96533.13;;;21.63;66.42
60874;BME280;46715;40.642;-7.920;2023-04-29T08:22:08;96531.78;;;21.82;65.46
60874;BME280;46715;40.642;-7.920;2023-04-29T08:24:13;96535.44;;;21.89;65.21
60874;BME280;46715;40.642;-7.920;2023-04-29T08:26:14;96535.53;;;21.80;65.40
60874;BME280;46715;40.642;-7.920;2023-04-29T08:28:15;96541.50;;;21.90;65.71
60874;BME280;46715;40.642;-7.920;2023-04-29T08:30:17;96550.47;;;21.98;64.84
60874;BME280;46715;40.642;-7.920;2023-04-29T08:32:18;96548.91;;;21.96;64.85
60874;BME280;46715;40.642;-7.920;2023-04-29T08:34:19;96549.91;;;21.79;65.17
60874;BME280;46715;40.642;-7.920;2023-04-29T08:36:21;96556.47;;;21.36;66.01
60874;BME280;46715;40.642;-7.920;2023-04-29T08:38:22;96548.78;;;21.43;66.35
60874;BME280;46715;40.642;-7.920;2023-04-29T08:40:23;96555.31;;;21.71;65.01
60874;BME280;46715;40.642;-7.920;2023-04-29T08:42:44;96548.34;;;21.54;65.38
60874;BME280;46715;40.642;-7.920;2023-04-29T08:44:45;96554.88;;;21.56;66.21
60874;BME280;46715;40.642;-7.920;2023-04-29T08:46:47;96551.34;;;21.65;65.60
60874;BME280;46715;40.642;-7.920;2023-04-29T08:48:48;96562.06;;;21.80;64.69
60874;BME280;46715;40.642;-7.920;2023-04-29T08:50:49;96561.03;;;21.48;65.64
60874;BME280;46715;40.642;-7.920;2023-04-29T08:52:50;96560.06;;;21.65;65.45
60874;BME280;46715;40.642;-7.920;2023-04-29T08:54:51;96563.19;;;21.79;64.83
60874;BME280;46715;40.642;-7.920;2023-04-29T08:56:54;96564.84;;;21.59;65.93
60874;BME280;46715;40.642;-7.920;2023-04-29T08:58:58;96571.31;;;21.37;67.31
60874;BME280;46715;40.642;-7.920;2023-04-29T09:01:01;96574.88;;;21.54;66.68
60874;BME280;46715;40.642;-7.920;2023-04-29T09:05:23;96563.69;;;21.36;68.65
60874;BME280;46715;40.642;-7.920;2023-04-29T09:07:26;96559.03;;;21.33;69.12
60874;BME280;46715;40.642;-7.920;2023-04-29T09:09:31;96566.31;;;21.36;69.61
60874;BME280;46715;40.642;-7.920;2023-04-29T09:11:33;96569.13;;;21.52;69.00
60874;BME280;46715;40.642;-7.920;2023-04-29T09:13:36;96569.47;;;21.75;68.55
60874;BME280;46715;40.642;-7.920;2023-04-29T09:15:38;96572.69;;;21.93;68.15
60874;BME280;46715;40.642;-7.920;2023-04-29T09:19:44;96570.69;;;21.77;67.98
60874;BME280;46715;40.642;-7.920;2023-04-29T09:21:49;96576.91;;;21.94;67.75
60874;BME280;46715;40.642;-7.920;2023-04-29T09:23:57;96578.84;;;21.48;68.06
60874;BME280;46715;40.642;-7.920;2023-04-29T09:25:58;96568.16;;;21.93;67.12
60874;BME280;46715;40.642;-7.920;2023-04-29T09:28:13;96572.34;;;22.07;67.60
60874;BME280;46715;40.642;-7.920;2023-04-29T09:30:15;96567.16;;;22.10;67.71
60874;BME280;46715;40.642;-7.920;2023-04-29T09:32:19;96567.16;;;21.73;67.66
60874;BME280;46715;40.642;-7.920;2023-04-29T09:34:36;96562.19;;;21.96;67.70
60874;BME280;46715;40.642;-7.920;2023-04-29T09:39:02;96567.41;;;22.87;63.04
60874;BME280;46715;40.642;-7.920;2023-04-29T09:41:08;96567.19;;;23.08;62.25
60874;BME280;46715;40.642;-7.920;2023-04-29T09:43:16;96571.97;;;23.02;62.00
60874;BME280;46715;40.642;-7.920;2023-04-29T09:45:37;96575.34;;;22.58;64.02
60874;BME280;46715;40.642;-7.920;2023-04-29T09:47:39;96589.25;;;22.27;65.06
60874;BME280;46715;40.642;-7.920;2023-04-29T09:49:43;96585.63;;;21.94;66.26
60874;BME280;46715;40.642;-7.920;2023-04-29T09:51:59;96587.31;;;21.87;67.48
60874;BME280;46715;40.642;-7.920;2023-04-29T09:54:19;96581.09;;;21.95;64.68
60874;BME280;46715;40.642;-7.920;2023-04-29T09:56:20;96577.91;;;21.89;63.35
60874;BME280;46715;40.642;-7.920;2023-04-29T09:58:33;96583.75;;;21.83;64.00
60874;BME280;46715;40.642;-7.920;2023-04-29T10:00:37;96584.63;;;21.62;64.46
60874;BME280;46715;40.642;-7.920;2023-04-29T10:02:41;96595.91;;;21.59;65.19
60874;BME280;46715;40.642;-7.920;2023-04-29T10:04:44;96587.09;;;21.79;66.88
60874;BME280;46715;40.642;-7.920;2023-04-29T10:06:51;96594.81;;;21.97;66.40
60874;BME280;46715;40.642;-7.920;2023-04-29T10:08:52;96598.66;;;22.24;64.25
60874;BME280;46715;40.642;-7.920;2023-04-29T10:10:58;96598.00;;;22.27;65.77
60874;BME280;46715;40.642;-7.920;2023-04-29T10:13:00;96596.34;;;22.10;66.16
60874;BME280;46715;40.642;-7.920;2023-04-29T10:17:27;96611.06;;;21.71;68.82
60874;BME280;46715;40.642;-7.920;2023-04-29T10:19:46;96610.16;;;21.54;70.23
60874;BME280;46715;40.642;-7.920;2023-04-29T10:21:47;96606.25;;;21.39;71.77
60874;BME280;46715;40.642;-7.920;2023-04-29T10:23:50;96616.03;;;21.26;70.85
60874;BME280;46715;40.642;-7.920;2023-04-29T10:25:54;96612.41;;;21.31;70.58
60874;BME280;46715;40.642;-7.920;2023-04-29T10:27:55;96612.22;;;21.49;71.06
60874;BME280;46715;40.642;-7.920;2023-04-29T10:29:59;96616.00;;;21.60;70.03
60874;BME280;46715;40.642;-7.920;2023-04-29T10:32:03;96612.94;;;21.58;69.98
60874;BME280;46715;40.642;-7.920;2023-04-29T10:34:07;96615.06;;;21.77;70.20
60874;BME280;46715;40.642;-7.920;2023-04-29T10:36:08;96615.66;;;21.49;70.42
60874;BME280;46715;40.642;-7.920;2023-04-29T10:38:20;96615.19;;;21.47;71.32
60874;BME280;46715;40.642;-7.920;2023-04-29T10:40:40;96608.34;;;21.34;72.34
60874;BME280;46715;40.642;-7.920;2023-04-29T10:42:44;96607.34;;;21.38;72.18
60874;BME280;46715;40.642;-7.920;2023-04-29T10:47:20;96594.16;;;21.75;71.44
60874;BME280;46715;40.642;-7.920;2023-04-29T10:49:21;96588.72;;;21.96;69.91
60874;BME280;46715;40.642;-7.920;2023-04-29T10:51:38;96586.16;;;22.25;67.44
60874;BME280;46715;40.642;-7.920;2023-04-29T10:53:58;96590.16;;;21.82;68.12
60874;BME280;46715;40.642;-7.920;2023-04-29T10:56:18;96584.84;;;21.69;68.86
60874;BME280;46715;40.642;-7.920;2023-04-29T10:58:40;96583.31;;;21.93;67.96
60874;BME280;46715;40.642;-7.920;2023-04-29T11:00:43;96589.28;;;22.02;67.96
60874;BME280;46715;40.642;-7.920;2023-04-29T11:02:44;96584.72;;;22.27;67.22
60874;BME280;46715;40.642;-7.920;2023-04-29T11:05:10;96583.06;;;22.47;66.35
60874;BME280;46715;40.642;-7.920;2023-04-29T11:07:26;96586.66;;;22.55;65.95
60874;BME280;46715;40.642;-7.920;2023-04-29T11:09:30;96591.78;;;22.48;66.68
60874;BME280;46715;40.642;-7.920;2023-04-29T11:12:06;96593.69;;;22.76;65.75